• Join FlightAware (Why Join?)
  • Login
  • US Flag 
05:24AM EDT


 

Airport Tracker/Info


-or-


 

Live Flight TrackerFlight Track Log ✈ N682RW ✈ 18-May-2013 ✈ KMDW - KDTW

Flight Track Log - Related Links

Times and Time Zones

All times are in EDT time to prevent confusion due to time zone crossing. See the N682RW flight status page for this flight to view local times or setup timezone preferences in your user account.

Time Position Orientation Groundspeed Altitude Reporting Facility
EDT Latitude Longitude Course Direction KTS MPH feet Rate Location/Type
05:20PM 41.8000 -87.6833 84° East 205 236 2,900  Level Chicago TRACON
05:21PM 41.8081 -87.5808 84° East 232 267 5,000 2,040 Climbing Chicago Center
05:22PM 41.8061 -87.4783 91° East 257 296 7,700 2,820 Climbing Chicago Center
05:23PM 41.7878 -87.3703 103° East 290 334 10,800 3,240 Climbing Chicago Center
05:24PM 41.7792 -87.2350 95° East 302 348 14,400 2,460 Climbing Chicago Center
05:25PM 41.7658 -87.1078 98° East 333 383 16,000 1,860 Climbing Chicago Center
05:26PM 41.7611 -86.9617 92° East 379 436 18,300 1,440 Climbing Chicago Center
05:27PM 41.7647 -86.8083 88° East 406 467 19,000 300 Climbing Chicago Center
05:28PM 41.7903 -86.6581 77° East 406 467 19,000  Level Chicago Center
05:29PM 41.8139 -86.5081 78° East 409 471 19,000  Level Chicago Center
05:30PM 41.8361 -86.3600 79° East 406 467 19,000  Level Chicago Center
05:31PM 41.8592 -86.2108 78° East 407 468 19,000  Level Chicago Center
05:32PM 41.8806 -86.0614 79° East 408 470 19,000  Level Chicago Center
05:33PM 41.9028 -85.9119 79° East 407 468 19,000  Level Chicago Center
05:34PM 41.9289 -85.7325 79° East 406 467 19,000  Level Chicago Center
05:36PM 41.9517 -85.5833 78° East 405 466 19,000  Level Chicago Center
05:37PM 41.9725 -85.4325 79° East 406 467 19,000  Level Chicago Center
05:38PM 41.9928 -85.2819 80° East 407 468 19,000  Level Chicago Center
05:39PM 42.0144 -85.1208 80° East 410 472 19,000  Level Chicago Center
05:39PM 42.0331 -85.0092 77° East 409 471 19,000 -60 Level Cleveland Center
05:40PM 42.0511 -84.8594 81° East 409 471 18,900 -780 Descending Cleveland Center
05:41PM 42.0397 -84.7158 96° East 402 463 17,500 -1,560 Descending Cleveland Center
05:42PM 41.9753 -84.5972 126° Southeast 373 429 15,800 -1,800 Descending Cleveland Center
05:43PM 41.9125 -84.4817 126° Southeast 373 429 14,000 -1,680 Descending Cleveland Center
05:44PM 41.8839 -84.3375 105° East 373 429 12,400 -1,020 Descending Cleveland Center
05:45PM 41.8569 -84.2019 105° East 361 415 12,000 -300 Descending Cleveland Center
05:46PM 41.8297 -84.0694 105° East 366 421 11,900 -60 Descending Cleveland Center
05:47PM 41.8667 -83.9517 67° East 327 376 11,900 -540 Level Cleveland Center
05:48PM 41.9453 -83.8972 27° Northeast 290 334 10,900 -1,320 Descending Cleveland Center
05:49PM 41.9672 -83.7922 74° East 274 315 9,300 -1,560 Descending Cleveland Center
05:51PM 41.9661 -83.6803 91° East 238 274 7,700 -1,620 Descending Cleveland Center
05:51PM 41.9722 -83.6025 84° East 255 293 6,100 -1,500 Descending Cleveland Center
05:52PM 41.9850 -83.5192 78° East 243 280 4,900 -960 Descending Cleveland Center
05:53PM 42.0342 -83.4711 36° Northeast 204 235 4,200 -900 Descending Cleveland Center
05:55PM 42.0936 -83.4289 28° Northeast 188 216 3,000 -1,020 Descending Cleveland Center
05:56PM 42.1361 -83.3972 29° Northeast 148 170 2,000 -840 Descending Cleveland Center
05:57PM 42.1700 -83.3708 30° Northeast 140 161 1,300 -720 Descending Cleveland Center
05:59PM 42.2000 -83.3500 27° Northeast  Level FlightAware Approximate